Time;durP1;ratioP1;P1;durP2;ratioP2;P2;SDS_P1;SDS_P2;PMS_P1;PMS_P2;Temp;Humidity;BMP_temperature;BMP_pressure;BME280_temperature;BME280_humidity;BME280_pressure;Samples;Min_cycle;Max_cycle;Signal;HPM_P1;HPM_P2
2023/08/18 00:03:17;;;;;;;10.77;4.50;;;;;;;;;;5076256;28;20423;-61
2023/08/18 00:06:58;;;;;;;12.73;4.78;;;;;;;;;;5075921;28;20090;-61
2023/08/18 00:10:38;;;;;;;15.50;4.95;;;;;;;;;;5076641;28;20483;-63
2023/08/18 00:14:18;;;;;;;13.52;5.50;;;;;;;;;;5083674;28;20147;-63
2023/08/18 00:17:59;;;;;;;14.68;5.30;;;;;;;;;;5073306;28;20438;-62
2023/08/18 00:21:40;;;;;;;13.85;4.65;;;;;;;;;;5076390;28;20042;-61
2023/08/18 00:25:19;;;;;;;13.77;5.20;;;;;;;;;;5076663;28;20438;-61
2023/08/18 00:29:00;;;;;;;14.52;4.95;;;;;;;;;;5080422;28;20052;-62
2023/08/18 00:32:00;;;;;;;11.00;4.88;;;;;;;;;;5085391;28;21032;-63
2023/08/18 00:34:26;;;;;;;12.13;5.15;;;;;;;;;;5073386;28;20056;-61
2023/08/18 00:36:52;;;;;;;14.02;4.88;;;;;;;;;;5073848;28;20044;-60
2023/08/18 00:39:18;;;;;;;16.05;5.57;;;;;;;;;;5078952;28;20040;-62
2023/08/18 00:41:44;;;;;;;14.75;5.00;;;;;;;;;;5088458;28;20051;-62
2023/08/18 00:44:10;;;;;;;12.88;5.35;;;;;;;;;;5082711;28;20052;-63
2023/08/18 00:46:36;;;;;;;18.30;5.90;;;;;;;;;;5084579;28;20253;-62
2023/08/18 00:49:06;;;;;;;11.23;4.88;;;;;;;;;;5086084;28;20446;-63
2023/08/18 00:51:33;;;;;;;13.32;5.30;;;;;;;;;;5078131;28;20052;-64
2023/08/18 00:54:01;;;;;;;16.20;5.65;;;;;;;;;;5083607;28;20040;-64
2023/08/18 00:56:27;;;;;;;18.42;5.72;;;;;;;;;;5085476;28;20060;-63
2023/08/18 00:58:54;;;;;;;17.08;5.50;;;;;;;;;;5086874;28;20055;-63
2023/08/18 01:01:21;;;;;;;15.23;5.93;;;;;;;;;;5086058;28;20052;-62
2023/08/18 01:03:47;;;;;;;15.38;5.78;;;;;;;;;;5085053;28;20089;-63
2023/08/18 01:06:14;;;;;;;14.68;6.18;;;;;;;;;;5083437;28;20550;-65
2023/08/18 01:08:40;;;;;;;18.02;6.03;;;;;;;;;;5084222;28;20407;-63
2023/08/18 01:11:48;;;;;;;24.38;6.22;;;;;;;;;;5082103;28;20062;-63
2023/08/18 01:14:14;;;;;;;18.90;5.97;;;;;;;;;;5023554;28;20045;-66
2023/08/18 01:16:43;;;;;;;16.98;6.18;;;;;;;;;;5026595;28;20065;-63
2023/08/18 01:19:14;;;;;;;18.75;6.45;;;;;;;;;;5022927;28;20045;-62
2023/08/18 01:21:43;;;;;;;24.80;6.63;;;;;;;;;;5023726;28;20053;-63
2023/08/18 01:24:09;;;;;;;21.27;6.50;;;;;;;;;;5025189;28;20078;-63
2023/08/18 01:26:34;;;;;;;22.35;6.25;;;;;;;;;;5026130;28;20417;-63
2023/08/18 01:29:01;;;;;;;23.02;6.53;;;;;;;;;;5021713;28;20437;-63
2023/08/18 01:31:31;;;;;;;18.02;5.93;;;;;;;;;;5023887;28;20054;-62
2023/08/18 01:34:05;;;;;;;21.63;6.85;;;;;;;;;;5023792;28;20056;-62
2023/08/18 01:36:39;;;;;;;14.68;5.72;;;;;;;;;;5024916;28;20053;-62
2023/08/18 01:39:06;;;;;;;24.95;6.65;;;;;;;;;;5024220;28;20128;-64
2023/08/18 01:41:34;;;;;;;16.63;6.45;;;;;;;;;;5026095;28;20814;-62
2023/08/18 01:44:00;;;;;;;18.38;6.10;;;;;;;;;;5022921;28;20142;-62
2023/08/18 01:46:26;;;;;;;17.42;6.80;;;;;;;;;;5023353;28;20077;-63
2023/08/18 01:48:52;;;;;;;15.52;6.47;;;;;;;;;;5025523;28;20056;-62
2023/08/18 01:51:18;;;;;;;20.10;6.45;;;;;;;;;;5060843;28;20056;-62
2023/08/18 01:53:44;;;;;;;16.88;6.68;;;;;;;;;;5085249;28;20044;-61
2023/08/18 01:56:10;;;;;;;15.57;6.50;;;;;;;;;;5081901;28;20075;-60
2023/08/18 01:58:36;;;;;;;18.83;6.82;;;;;;;;;;5078614;28;20052;-61
2023/08/18 02:01:02;;;;;;;13.77;6.88;;;;;;;;;;5082882;28;20066;-62
2023/08/18 02:03:29;;;;;;;18.10;7.50;;;;;;;;;;5083008;28;20044;-62
2023/08/18 02:05:58;;;;;;;19.65;6.90;;;;;;;;;;5081216;28;20131;-61
2023/08/18 02:08:24;;;;;;;18.25;6.82;;;;;;;;;;5084839;28;20110;-62
2023/08/18 02:10:50;;;;;;;18.42;6.72;;;;;;;;;;5084124;28;20063;-64
2023/08/18 02:13:16;;;;;;;15.07;7.43;;;;;;;;;;5086562;28;20055;-63
2023/08/18 02:15:45;;;;;;;15.35;6.57;;;;;;;;;;5083170;28;20047;-63
2023/08/18 02:18:12;;;;;;;14.25;6.78;;;;;;;;;;5075808;28;20064;-63
2023/08/18 02:20:38;;;;;;;16.48;6.80;;;;;;;;;;5081817;28;20538;-62
2023/08/18 02:23:05;;;;;;;20.95;6.75;;;;;;;;;;5082499;28;20048;-62
2023/08/18 02:25:30;;;;;;;14.63;6.72;;;;;;;;;;5083131;28;20059;-63
2023/08/18 02:27:56;;;;;;;18.40;6.78;;;;;;;;;;5083529;28;20052;-62
2023/08/18 02:30:22;;;;;;;17.60;7.20;;;;;;;;;;5083357;28;20090;-62
2023/08/18 02:32:48;;;;;;;15.82;6.97;;;;;;;;;;5078037;28;20056;-62
2023/08/18 02:35:14;;;;;;;16.90;6.45;;;;;;;;;;5084004;28;20537;-64
2023/08/18 02:37:40;;;;;;;22.77;7.20;;;;;;;;;;5077082;28;20553;-62
2023/08/18 02:40:08;;;;;;;19.88;7.78;;;;;;;;;;5084386;28;20036;-63
2023/08/18 02:42:37;;;;;;;15.68;6.70;;;;;;;;;;5088939;28;20104;-62
2023/08/18 02:45:03;;;;;;;20.15;7.65;;;;;;;;;;5087628;28;20114;-61
2023/08/18 02:47:29;;;;;;;15.73;6.63;;;;;;;;;;5080541;28;20074;-62
2023/08/18 02:49:54;;;;;;;16.15;6.90;;;;;;;;;;5087968;28;20055;-64
2023/08/18 02:52:20;;;;;;;15.45;6.40;;;;;;;;;;5084568;28;20377;-62
2023/08/18 02:54:46;;;;;;;18.35;6.32;;;;;;;;;;5089142;28;20044;-63
2023/08/18 02:57:12;;;;;;;19.83;7.00;;;;;;;;;;5084427;28;20056;-63
2023/08/18 02:59:38;;;;;;;15.30;6.45;;;;;;;;;;5088476;28;20052;-63
2023/08/18 03:02:04;;;;;;;15.70;6.60;;;;;;;;;;5079030;28;20070;-62
2023/08/18 03:04:30;;;;;;;18.05;6.63;;;;;;;;;;5083838;28;20052;-63
2023/08/18 03:06:57;;;;;;;16.30;6.88;;;;;;;;;;5085882;28;20483;-61
2023/08/18 03:09:22;;;;;;;15.52;6.55;;;;;;;;;;5087583;28;20044;-63
2023/08/18 03:11:50;;;;;;;14.02;6.72;;;;;;;;;;5080769;28;20060;-64
2023/08/18 03:14:16;;;;;;;13.23;6.60;;;;;;;;;;5088098;28;20692;-62
2023/08/18 03:16:43;;;;;;;17.60;6.70;;;;;;;;;;5087787;28;20122;-65
2023/08/18 03:19:09;;;;;;;13.50;6.00;;;;;;;;;;5086916;28;20110;-63
2023/08/18 03:21:35;;;;;;;17.75;6.47;;;;;;;;;;5084919;28;20052;-62
2023/08/18 03:24:01;;;;;;;15.93;6.25;;;;;;;;;;5085089;28;20070;-63
2023/08/18 03:26:27;;;;;;;13.75;6.32;;;;;;;;;;5083086;28;20492;-62
2023/08/18 03:28:56;;;;;;;16.67;6.85;;;;;;;;;;5084730;28;20454;-62
2023/08/18 03:31:22;;;;;;;13.82;6.50;;;;;;;;;;5084213;28;20048;-62
2023/08/18 03:33:48;;;;;;;13.90;5.88;;;;;;;;;;5086568;28;20101;-62
2023/08/18 03:36:14;;;;;;;18.58;6.60;;;;;;;;;;5089350;28;20709;-62
2023/08/18 03:38:40;;;;;;;14.93;6.65;;;;;;;;;;5075540;28;20040;-61
2023/08/18 03:41:07;;;;;;;22.10;6.90;;;;;;;;;;5085832;28;20120;-61
2023/08/18 03:43:34;;;;;;;20.80;7.05;;;;;;;;;;5081630;28;20044;-63
2023/08/18 03:46:07;;;;;;;19.52;6.80;;;;;;;;;;5076710;28;20067;-63
2023/08/18 03:48:33;;;;;;;16.10;6.68;;;;;;;;;;5081350;28;20048;-63
2023/08/18 03:50:59;;;;;;;15.80;6.53;;;;;;;;;;5087609;28;20052;-62
2023/08/18 03:53:25;;;;;;;14.40;6.60;;;;;;;;;;5085447;28;20074;-63
2023/08/18 03:55:55;;;;;;;18.88;7.40;;;;;;;;;;5088036;28;20066;-63
2023/08/18 03:58:21;;;;;;;19.10;7.38;;;;;;;;;;5084108;28;20048;-63
2023/08/18 04:00:47;;;;;;;21.30;7.32;;;;;;;;;;5086566;28;20074;-63
2023/08/18 04:03:14;;;;;;;18.20;7.03;;;;;;;;;;5084215;28;20398;-62
2023/08/18 04:05:47;;;;;;;16.20;7.25;;;;;;;;;;5089000;28;20052;-61
2023/08/18 04:08:13;;;;;;;19.73;7.45;;;;;;;;;;5088330;28;20040;-62
2023/08/18 04:10:39;;;;;;;16.77;7.20;;;;;;;;;;5088574;28;20338;-61
2023/08/18 04:13:04;;;;;;;20.08;7.05;;;;;;;;;;5078398;28;20048;-62
2023/08/18 04:15:31;;;;;;;13.85;7.30;;;;;;;;;;5080757;28;20431;-62
2023/08/18 04:17:57;;;;;;;19.92;7.28;;;;;;;;;;5086586;28;20054;-63
2023/08/18 04:20:23;;;;;;;20.08;7.97;;;;;;;;;;5084836;28;20047;-62
2023/08/18 04:22:48;;;;;;;20.25;7.03;;;;;;;;;;5084229;28;20044;-63
2023/08/18 04:25:14;;;;;;;16.05;7.03;;;;;;;;;;5081948;28;20464;-63
2023/08/18 04:27:40;;;;;;;16.20;6.93;;;;;;;;;;5088062;28;20052;-61
2023/08/18 04:30:08;;;;;;;19.92;7.30;;;;;;;;;;5085462;28;20048;-62
2023/08/18 04:32:33;;;;;;;16.25;7.50;;;;;;;;;;5085486;28;20063;-63
2023/08/18 04:35:01;;;;;;;20.10;6.82;;;;;;;;;;5076202;28;20044;-62
2023/08/18 04:37:27;;;;;;;13.70;6.68;;;;;;;;;;5072798;28;20044;-62
2023/08/18 04:39:53;;;;;;;20.05;7.28;;;;;;;;;;5082221;28;20059;-62
2023/08/18 04:42:18;;;;;;;16.67;7.07;;;;;;;;;;5082685;28;20051;-62
2023/08/18 04:44:44;;;;;;;20.65;7.20;;;;;;;;;;5072635;28;20052;-63
2023/08/18 04:47:10;;;;;;;17.38;7.68;;;;;;;;;;5078314;28;20101;-62
2023/08/18 04:49:36;;;;;;;16.73;7.03;;;;;;;;;;5083870;28;20106;-62
2023/08/18 04:52:02;;;;;;;20.08;7.38;;;;;;;;;;5084066;28;20045;-62
2023/08/18 04:54:28;;;;;;;18.35;6.97;;;;;;;;;;5083754;28;20812;-63
2023/08/18 04:57:00;;;;;;;15.85;6.65;;;;;;;;;;5082771;28;20129;-62
2023/08/18 04:59:26;;;;;;;17.35;7.00;;;;;;;;;;5088066;28;20060;-60
2023/08/18 05:01:52;;;;;;;15.85;7.18;;;;;;;;;;5084841;28;20056;-61
2023/08/18 05:04:19;;;;;;;18.08;6.85;;;;;;;;;;5077488;28;20051;-62
2023/08/18 05:06:45;;;;;;;18.70;6.85;;;;;;;;;;5082753;28;20562;-62
2023/08/18 05:09:11;;;;;;;14.93;6.53;;;;;;;;;;5082475;28;20408;-62
2023/08/18 05:11:36;;;;;;;22.48;7.38;;;;;;;;;;5086593;28;20472;-62
2023/08/18 05:14:03;;;;;;;18.63;7.15;;;;;;;;;;5082148;28;20055;-62
2023/08/18 05:16:29;;;;;;;23.50;7.30;;;;;;;;;;5089422;28;20044;-65
2023/08/18 05:18:55;;;;;;;17.98;7.53;;;;;;;;;;5080088;28;20056;-64
2023/08/18 05:21:21;;;;;;;18.23;6.63;;;;;;;;;;5081485;28;20071;-61
2023/08/18 05:23:47;;;;;;;14.93;6.85;;;;;;;;;;5085898;28;20055;-62
2023/08/18 05:26:13;;;;;;;16.05;6.75;;;;;;;;;;5081054;28;20380;-62
2023/08/18 05:28:39;;;;;;;17.90;6.57;;;;;;;;;;5085767;28;20047;-62
2023/08/18 05:31:07;;;;;;;17.02;6.90;;;;;;;;;;5084758;28;20048;-63
2023/08/18 05:33:33;;;;;;;14.05;7.10;;;;;;;;;;5082966;28;20484;-62
2023/08/18 05:35:59;;;;;;;20.25;7.47;;;;;;;;;;5083845;28;20044;-61
2023/08/18 05:38:27;;;;;;;14.00;6.50;;;;;;;;;;5073024;28;20052;-62
2023/08/18 05:40:53;;;;;;;19.58;7.07;;;;;;;;;;5086864;28;20491;-61
2023/08/18 05:43:19;;;;;;;24.60;7.95;;;;;;;;;;5084731;28;20048;-62
2023/08/18 05:45:46;;;;;;;16.42;6.93;;;;;;;;;;5076272;28;20047;-62
2023/08/18 05:48:13;;;;;;;22.20;7.15;;;;;;;;;;5080532;28;20067;-62
2023/08/18 05:50:39;;;;;;;17.23;6.47;;;;;;;;;;5084972;28;20054;-62
2023/08/18 05:53:06;;;;;;;18.88;6.80;;;;;;;;;;5078513;28;20056;-62
2023/08/18 05:55:32;;;;;;;16.77;6.75;;;;;;;;;;5083486;28;20036;-61
2023/08/18 05:58:04;;;;;;;22.33;6.75;;;;;;;;;;5082689;28;20040;-61
2023/08/18 06:00:30;;;;;;;16.70;7.00;;;;;;;;;;5082540;28;20239;-61
2023/08/18 06:02:57;;;;;;;19.30;7.18;;;;;;;;;;5083840;28;20515;-62
2023/08/18 06:05:26;;;;;;;17.38;6.85;;;;;;;;;;5077325;28;20129;-62
2023/08/18 06:07:52;;;;;;;17.10;7.13;;;;;;;;;;5084508;28;20055;-62
2023/08/18 06:10:18;;;;;;;21.85;6.38;;;;;;;;;;5086386;28;20059;-62
2023/08/18 06:12:44;;;;;;;19.40;6.97;;;;;;;;;;5078368;28;20040;-61
2023/08/18 06:15:11;;;;;;;19.60;6.47;;;;;;;;;;5082967;28;20411;-62
2023/08/18 06:17:37;;;;;;;15.30;6.32;;;;;;;;;;5087139;28;20058;-63
2023/08/18 06:20:03;;;;;;;21.27;7.03;;;;;;;;;;5092697;28;20044;-63
2023/08/18 06:22:29;;;;;;;25.27;6.60;;;;;;;;;;5086365;28;20093;-63
2023/08/18 06:24:55;;;;;;;19.98;6.30;;;;;;;;;;5073156;28;20091;-63
2023/08/18 06:27:21;;;;;;;22.25;6.15;;;;;;;;;;5086844;28;20068;-61
2023/08/18 06:29:47;;;;;;;16.50;7.40;;;;;;;;;;5091058;28;20514;-62
2023/08/18 06:32:13;;;;;;;17.65;6.65;;;;;;;;;;5080908;28;20036;-62
2023/08/18 06:34:39;;;;;;;23.27;7.32;;;;;;;;;;5086991;28;20614;-62
2023/08/18 06:37:05;;;;;;;20.48;6.70;;;;;;;;;;5076585;28;20506;-62
2023/08/18 06:39:30;;;;;;;16.65;6.75;;;;;;;;;;5089655;28;20044;-62
2023/08/18 06:41:57;;;;;;;23.83;6.60;;;;;;;;;;5087076;28;20060;-62
2023/08/18 06:44:22;;;;;;;17.27;6.55;;;;;;;;;;5083736;28;20048;-61
2023/08/18 06:46:49;;;;;;;21.05;6.82;;;;;;;;;;5080917;28;20044;-61
2023/08/18 06:49:15;;;;;;;21.75;6.28;;;;;;;;;;5084853;28;20128;-62
2023/08/18 06:51:41;;;;;;;20.17;7.13;;;;;;;;;;5088697;28;20044;-67
2023/08/18 06:54:07;;;;;;;16.88;6.25;;;;;;;;;;5090497;28;20070;-62
2023/08/18 06:56:33;;;;;;;24.65;6.97;;;;;;;;;;5086913;28;20074;-63
2023/08/18 06:59:00;;;;;;;16.58;6.80;;;;;;;;;;5083481;28;20122;-63
2023/08/18 07:01:26;;;;;;;17.73;6.10;;;;;;;;;;5084944;28;20499;-63
2023/08/18 07:03:55;;;;;;;20.55;6.22;;;;;;;;;;5082553;28;20055;-61
2023/08/18 07:06:21;;;;;;;22.02;6.47;;;;;;;;;;5079557;28;20066;-64
2023/08/18 07:08:47;;;;;;;14.82;5.53;;;;;;;;;;5084902;28;20048;-62
2023/08/18 07:11:13;;;;;;;18.33;6.28;;;;;;;;;;5089772;28;20052;-62
2023/08/18 07:13:39;;;;;;;21.98;6.55;;;;;;;;;;5086323;28;20059;-62
2023/08/18 07:16:05;;;;;;;30.13;6.47;;;;;;;;;;5081662;28;20044;-64
2023/08/18 07:18:30;;;;;;;19.00;5.72;;;;;;;;;;5082214;28;20505;-63
2023/08/18 07:20:59;;;;;;;15.45;6.05;;;;;;;;;;5083738;28;20056;-61
2023/08/18 07:23:25;;;;;;;18.48;5.97;;;;;;;;;;5089398;28;20066;-63
2023/08/18 07:25:53;;;;;;;11.70;5.53;;;;;;;;;;5086620;28;20097;-62
2023/08/18 07:28:19;;;;;;;17.30;5.82;;;;;;;;;;5081437;28;20047;-62
2023/08/18 07:30:46;;;;;;;17.15;5.63;;;;;;;;;;5089316;28;20048;-63
2023/08/18 07:33:12;;;;;;;16.60;5.63;;;;;;;;;;5082851;28;20050;-62
2023/08/18 07:35:39;;;;;;;16.35;5.80;;;;;;;;;;5078829;28;20070;-62
2023/08/18 07:38:05;;;;;;;17.00;5.70;;;;;;;;;;5081469;28;20134;-61
2023/08/18 07:40:31;;;;;;;14.38;5.55;;;;;;;;;;5078018;28;20134;-64
2023/08/18 07:42:58;;;;;;;12.52;5.85;;;;;;;;;;5083244;28;20124;-63
2023/08/18 07:45:24;;;;;;;22.08;5.70;;;;;;;;;;5088673;28;20407;-64
2023/08/18 07:47:51;;;;;;;21.13;7.00;;;;;;;;;;5084459;28;20163;-63
2023/08/18 07:50:17;;;;;;;19.65;6.95;;;;;;;;;;5089158;28;20066;-63
2023/08/18 07:52:43;;;;;;;15.73;5.72;;;;;;;;;;5087047;28;20072;-64
2023/08/18 07:55:09;;;;;;;20.77;5.90;;;;;;;;;;5089965;28;20044;-65
2023/08/18 07:57:39;;;;;;;14.48;5.18;;;;;;;;;;5080563;28;20113;-64
2023/08/18 08:00:15;;;;;;;11.45;5.40;;;;;;;;;;5084828;28;20119;-65
2023/08/18 08:02:41;;;;;;;14.07;5.53;;;;;;;;;;5083811;28;20107;-66
2023/08/18 08:05:08;;;;;;;13.75;5.35;;;;;;;;;;5078596;28;20048;-64
2023/08/18 08:07:34;;;;;;;13.52;5.57;;;;;;;;;;5086351;28;20059;-61
2023/08/18 08:10:03;;;;;;;15.48;5.55;;;;;;;;;;5075606;28;20079;-63
2023/08/18 08:12:31;;;;;;;17.73;5.15;;;;;;;;;;5081312;28;20117;-63
2023/08/18 08:14:58;;;;;;;16.13;5.38;;;;;;;;;;5084654;28;20048;-62
2023/08/18 08:17:24;;;;;;;17.52;5.60;;;;;;;;;;5079968;28;20362;-63
2023/08/18 08:19:50;;;;;;;14.98;5.68;;;;;;;;;;5079446;28;20055;-62
2023/08/18 08:22:16;;;;;;;13.73;5.50;;;;;;;;;;5088527;28;20052;-61
2023/08/18 08:24:43;;;;;;;13.20;5.60;;;;;;;;;;5084245;28;20060;-68
2023/08/18 08:27:09;;;;;;;15.30;5.25;;;;;;;;;;5083567;28;21406;-62
2023/08/18 08:29:35;;;;;;;15.73;5.05;;;;;;;;;;5083657;28;20051;-63
2023/08/18 08:32:00;;;;;;;14.85;5.20;;;;;;;;;;5084202;28;20041;-61
2023/08/18 08:34:27;;;;;;;15.93;5.15;;;;;;;;;;5088373;28;20064;-61
2023/08/18 08:36:53;;;;;;;15.15;5.18;;;;;;;;;;5079009;28;20941;-63
2023/08/18 08:39:19;;;;;;;13.25;4.78;;;;;;;;;;5080247;28;20051;-62
2023/08/18 08:41:45;;;;;;;16.45;4.80;;;;;;;;;;5087182;28;20454;-61
2023/08/18 08:44:11;;;;;;;12.90;4.63;;;;;;;;;;5083838;28;20060;-61
2023/08/18 08:46:38;;;;;;;10.13;4.35;;;;;;;;;;5084399;28;20052;-63
2023/08/18 08:49:07;;;;;;;12.98;4.78;;;;;;;;;;5084217;28;20048;-62
2023/08/18 08:51:38;;;;;;;13.18;4.57;;;;;;;;;;5085699;28;20169;-63
2023/08/18 08:54:07;;;;;;;17.50;4.72;;;;;;;;;;5076650;28;20043;-63
2023/08/18 08:56:35;;;;;;;12.43;4.88;;;;;;;;;;5076403;28;20048;-65
2023/08/18 08:59:01;;;;;;;13.23;5.20;;;;;;;;;;5090026;28;20047;-65
2023/08/18 09:01:27;;;;;;;12.65;5.40;;;;;;;;;;5076568;28;20047;-61
2023/08/18 09:03:53;;;;;;;15.43;6.30;;;;;;;;;;5073442;28;20064;-62
2023/08/18 09:06:19;;;;;;;16.40;5.85;;;;;;;;;;5080388;28;20420;-64
2023/08/18 09:08:45;;;;;;;22.45;6.90;;;;;;;;;;5078315;28;20481;-61
2023/08/18 09:11:11;;;;;;;24.88;6.82;;;;;;;;;;5084014;28;20056;-63
2023/08/18 09:13:39;;;;;;;17.83;5.70;;;;;;;;;;5079719;28;20056;-62
2023/08/18 09:16:08;;;;;;;17.38;5.38;;;;;;;;;;5070571;28;20032;-63
2023/08/18 09:18:35;;;;;;;19.75;6.05;;;;;;;;;;5074026;28;20566;-63
2023/08/18 09:21:04;;;;;;;14.50;6.03;;;;;;;;;;5082946;28;20056;-63
2023/08/18 09:23:32;;;;;;;19.75;5.93;;;;;;;;;;5083665;28;20482;-61
2023/08/18 09:25:58;;;;;;;21.02;5.55;;;;;;;;;;5082488;28;20036;-61
2023/08/18 09:28:25;;;;;;;13.65;5.50;;;;;;;;;;5075710;28;20718;-62
2023/08/18 09:30:51;;;;;;;15.40;5.88;;;;;;;;;;5077558;28;20044;-63
2023/08/18 09:33:21;;;;;;;14.43;5.80;;;;;;;;;;5079465;28;20048;-61
2023/08/18 09:35:56;;;;;;;15.95;5.55;;;;;;;;;;5075014;28;20491;-62
2023/08/18 09:38:24;;;;;;;15.48;4.72;;;;;;;;;;5078220;28;20051;-62
2023/08/18 09:40:54;;;;;;;16.95;5.40;;;;;;;;;;5081188;28;20075;-63
2023/08/18 09:43:25;;;;;;;18.55;5.35;;;;;;;;;;5080979;28;20044;-64
2023/08/18 09:45:54;;;;;;;17.88;5.60;;;;;;;;;;5082894;28;20097;-64
2023/08/18 09:48:26;;;;;;;18.25;5.25;;;;;;;;;;5082894;28;20415;-63
2023/08/18 09:50:57;;;;;;;13.10;5.20;;;;;;;;;;5073603;28;20443;-61
2023/08/18 09:53:29;;;;;;;21.70;6.03;;;;;;;;;;5076071;28;20056;-61
2023/08/18 09:55:59;;;;;;;14.13;5.10;;;;;;;;;;5074298;28;20051;-61
2023/08/18 09:58:39;;;;;;;13.20;5.18;;;;;;;;;;5075824;28;20063;-62
2023/08/18 10:01:08;;;;;;;14.25;5.15;;;;;;;;;;5082517;28;20172;-61
2023/08/18 10:03:38;;;;;;;16.90;5.40;;;;;;;;;;5085021;28;20083;-62
2023/08/18 10:06:07;;;;;;;16.45;5.35;;;;;;;;;;5086891;28;20044;-60
2023/08/18 10:08:34;;;;;;;16.27;5.35;;;;;;;;;;5081871;28;20052;-61
2023/08/18 10:11:03;;;;;;;15.68;5.70;;;;;;;;;;5084577;28;20147;-62
2023/08/18 10:13:33;;;;;;;16.15;5.28;;;;;;;;;;5081843;28;20141;-58
2023/08/18 10:16:04;;;;;;;15.68;5.15;;;;;;;;;;5085507;28;20400;-61
2023/08/18 10:18:31;;;;;;;12.63;5.10;;;;;;;;;;5076826;28;20130;-62
2023/08/18 10:20:58;;;;;;;12.68;4.53;;;;;;;;;;5078776;28;20055;-64
2023/08/18 10:23:28;;;;;;;13.45;5.15;;;;;;;;;;5084594;28;20056;-61
2023/08/18 10:25:53;;;;;;;14.23;5.53;;;;;;;;;;5079010;28;20044;-62
2023/08/18 10:28:22;;;;;;;17.67;5.50;;;;;;;;;;5077339;28;20389;-61
2023/08/18 10:30:57;;;;;;;17.70;5.00;;;;;;;;;;5080378;28;20036;-62
2023/08/18 10:33:53;;;;;;;18.13;6.15;;;;;;;;;;5085756;28;20052;-59
2023/08/18 10:36:28;;;;;;;12.90;5.30;;;;;;;;;;5059537;28;20204;-63
2023/08/18 10:38:55;;;;;;;18.48;5.50;;;;;;;;;;5074390;28;20049;-63
2023/08/18 10:41:28;;;;;;;17.00;6.15;;;;;;;;;;5082842;28;20383;-61
2023/08/18 10:43:58;;;;;;;17.23;5.68;;;;;;;;;;5069246;28;20049;-62
2023/08/18 10:46:35;;;;;;;14.18;5.82;;;;;;;;;;5071790;28;20036;-62
2023/08/18 10:49:03;;;;;;;16.98;5.63;;;;;;;;;;5083233;28;20048;-62
2023/08/18 10:51:29;;;;;;;19.98;6.28;;;;;;;;;;5087416;28;20059;-65
2023/08/18 10:53:55;;;;;;;13.52;6.00;;;;;;;;;;5079642;28;20044;-61
2023/08/18 10:56:21;;;;;;;23.65;6.65;;;;;;;;;;5082914;28;20492;-62
2023/08/18 10:58:47;;;;;;;12.63;5.38;;;;;;;;;;5093016;28;20055;-60
2023/08/18 11:01:13;;;;;;;13.52;6.07;;;;;;;;;;5085431;28;20564;-62
2023/08/18 11:03:44;;;;;;;15.48;6.15;;;;;;;;;;5079901;28;20048;-64
2023/08/18 11:06:09;;;;;;;13.77;6.30;;;;;;;;;;5084479;28;20484;-63
2023/08/18 11:08:36;;;;;;;19.80;6.70;;;;;;;;;;5081172;28;20048;-63
2023/08/18 11:11:02;;;;;;;14.77;6.18;;;;;;;;;;5085821;28;20074;-62
2023/08/18 11:13:29;;;;;;;14.98;6.00;;;;;;;;;;5088858;28;20052;-63
2023/08/18 11:15:56;;;;;;;18.20;6.35;;;;;;;;;;5087184;28;20108;-62
2023/08/18 11:18:23;;;;;;;14.35;6.00;;;;;;;;;;5084619;28;20151;-64
2023/08/18 11:20:51;;;;;;;15.95;6.15;;;;;;;;;;5086915;28;20043;-63
2023/08/18 11:23:18;;;;;;;13.25;6.05;;;;;;;;;;5088023;28;20048;-60
2023/08/18 11:25:45;;;;;;;18.45;6.82;;;;;;;;;;5089265;28;20043;-62
2023/08/18 11:28:13;;;;;;;16.17;6.57;;;;;;;;;;5088069;28;20064;-63
2023/08/18 11:30:39;;;;;;;14.30;6.68;;;;;;;;;;5084975;28;20058;-63
2023/08/18 11:33:05;;;;;;;14.27;6.70;;;;;;;;;;5082530;28;20483;-62
2023/08/18 11:35:32;;;;;;;18.20;6.43;;;;;;;;;;5080633;28;20079;-62
2023/08/18 11:37:59;;;;;;;26.35;6.85;;;;;;;;;;5080596;28;20053;-61
2023/08/18 11:40:25;;;;;;;20.35;6.80;;;;;;;;;;5090222;28;20059;-63
2023/08/18 11:42:53;;;;;;;14.80;6.22;;;;;;;;;;5076695;28;20056;-63
2023/08/18 11:45:23;;;;;;;16.10;6.28;;;;;;;;;;5085098;28;20127;-62
2023/08/18 11:48:04;;;;;;;15.02;6.35;;;;;;;;;;5081792;28;20044;-62
2023/08/18 11:50:37;;;;;;;17.98;6.30;;;;;;;;;;5080244;28;20048;-61
2023/08/18 11:53:05;;;;;;;14.80;5.88;;;;;;;;;;5086019;28;20059;-63
2023/08/18 11:55:32;;;;;;;17.67;6.55;;;;;;;;;;5085608;28;20094;-66
2023/08/18 11:57:58;;;;;;;13.32;5.75;;;;;;;;;;5082296;28;20104;-62
2023/08/18 12:00:37;;;;;;;16.40;6.05;;;;;;;;;;5085855;28;20052;-62
2023/08/18 12:03:19;;;;;;;16.88;5.90;;;;;;;;;;5084882;28;20041;-63
2023/08/18 12:05:45;;;;;;;14.30;5.78;;;;;;;;;;5086765;28;20084;-62
2023/08/18 12:08:12;;;;;;;22.65;5.90;;;;;;;;;;5082174;28;20052;-62
2023/08/18 12:10:38;;;;;;;14.90;5.38;;;;;;;;;;5087084;28;20104;-61
2023/08/18 12:13:04;;;;;;;11.57;5.53;;;;;;;;;;5077325;28;20052;-62
2023/08/18 12:15:30;;;;;;;15.63;5.80;;;;;;;;;;5079906;28;20054;-63
2023/08/18 12:17:58;;;;;;;17.15;5.25;;;;;;;;;;5081952;28;20054;-61
2023/08/18 12:20:24;;;;;;;11.65;5.47;;;;;;;;;;5082825;28;20041;-61
2023/08/18 12:22:52;;;;;;;16.67;4.95;;;;;;;;;;5086227;28;20063;-62
2023/08/18 12:25:20;;;;;;;12.55;4.47;;;;;;;;;;5087432;28;20064;-62
2023/08/18 12:27:47;;;;;;;14.10;4.45;;;;;;;;;;5078510;28;20460;-63
2023/08/18 12:30:14;;;;;;;15.23;5.00;;;;;;;;;;5087362;28;20044;-62
2023/08/18 12:32:42;;;;;;;18.15;4.75;;;;;;;;;;5077424;28;20051;-63
2023/08/18 12:35:08;;;;;;;17.38;4.57;;;;;;;;;;5082091;28;20525;-61
2023/08/18 12:37:34;;;;;;;11.57;4.38;;;;;;;;;;5080877;28;20063;-65
2023/08/18 12:40:00;;;;;;;14.23;4.78;;;;;;;;;;5082070;28;20048;-61
2023/08/18 12:42:26;;;;;;;15.40;4.72;;;;;;;;;;5079190;28;20052;-63
2023/08/18 12:44:52;;;;;;;11.05;4.20;;;;;;;;;;5084564;28;20044;-63
2023/08/18 12:47:18;;;;;;;11.70;4.20;;;;;;;;;;5085442;28;20040;-63
2023/08/18 12:49:45;;;;;;;13.82;4.32;;;;;;;;;;5080141;28;20056;-63
2023/08/18 12:52:13;;;;;;;22.73;4.57;;;;;;;;;;5087549;28;20048;-60
2023/08/18 12:54:40;;;;;;;16.48;4.60;;;;;;;;;;5085435;28;20412;-61
2023/08/18 12:57:07;;;;;;;14.70;4.32;;;;;;;;;;5080594;28;20052;-63
2023/08/18 12:59:33;;;;;;;11.85;4.10;;;;;;;;;;5087003;28;20060;-63
2023/08/18 13:01:59;;;;;;;12.38;4.00;;;;;;;;;;5083229;28;20044;-63
2023/08/18 13:04:24;;;;;;;15.13;4.50;;;;;;;;;;5082798;28;20393;-63
2023/08/18 13:06:50;;;;;;;13.63;3.95;;;;;;;;;;5084830;28;20056;-63
2023/08/18 13:09:18;;;;;;;9.15;3.92;;;;;;;;;;5083345;28;22228;-63
2023/08/18 13:11:45;;;;;;;10.30;3.90;;;;;;;;;;5082207;28;20058;-63
2023/08/18 13:14:11;;;;;;;14.13;4.15;;;;;;;;;;5089102;28;20044;-63
2023/08/18 13:16:41;;;;;;;16.55;4.32;;;;;;;;;;5079725;28;20082;-64
2023/08/18 13:19:07;;;;;;;14.52;4.03;;;;;;;;;;5086688;28;20070;-63
2023/08/18 13:21:35;;;;;;;10.38;3.85;;;;;;;;;;5084619;28;20047;-61
2023/08/18 13:24:01;;;;;;;8.82;4.15;;;;;;;;;;5086157;28;20135;-61
2023/08/18 13:26:27;;;;;;;11.95;3.90;;;;;;;;;;5086710;28;20181;-63
2023/08/18 13:28:53;;;;;;;8.40;3.60;;;;;;;;;;5087069;28;20139;-63
2023/08/18 13:31:19;;;;;;;11.07;3.95;;;;;;;;;;5079316;28;20063;-63
2023/08/18 13:33:45;;;;;;;8.48;3.72;;;;;;;;;;5082015;28;20367;-63
2023/08/18 13:36:11;;;;;;;8.70;3.70;;;;;;;;;;5080931;28;20044;-62
2023/08/18 13:38:37;;;;;;;11.98;3.80;;;;;;;;;;5074964;28;20126;-62
2023/08/18 13:41:03;;;;;;;14.90;4.07;;;;;;;;;;5083213;28;20048;-62
2023/08/18 13:43:29;;;;;;;10.27;4.03;;;;;;;;;;5078703;28;20048;-63
2023/08/18 13:45:56;;;;;;;12.30;4.10;;;;;;;;;;5084649;28;20048;-62
2023/08/18 13:48:23;;;;;;;9.50;3.50;;;;;;;;;;5082065;28;20052;-62
2023/08/18 13:50:49;;;;;;;10.25;3.88;;;;;;;;;;5079922;28;20048;-60
2023/08/18 13:53:15;;;;;;;13.50;4.20;;;;;;;;;;5083479;28;20142;-61
2023/08/18 13:55:43;;;;;;;12.15;3.55;;;;;;;;;;5076518;28;20048;-62
2023/08/18 13:58:10;;;;;;;14.80;4.35;;;;;;;;;;5085420;28;20044;-63
2023/08/18 14:01:17;;;;;;;13.88;4.65;;;;;;;;;;5077737;28;20045;-61
2023/08/18 14:04:56;;;;;;;13.85;4.10;;;;;;;;;;5082135;28;20072;-61
2023/08/18 14:08:37;;;;;;;10.70;4.07;;;;;;;;;;5082500;28;20051;-63
2023/08/18 14:12:17;;;;;;;13.18;4.38;;;;;;;;;;5086277;28;20063;-61
2023/08/18 14:15:57;;;;;;;9.50;3.65;;;;;;;;;;5072005;28;20047;-62
2023/08/18 14:19:38;;;;;;;12.75;3.88;;;;;;;;;;5095392;28;20710;-62
2023/08/18 14:23:18;;;;;;;11.90;3.75;;;;;;;;;;5083098;28;20064;-62
2023/08/18 14:26:58;;;;;;;9.90;3.70;;;;;;;;;;5079017;28;20381;-63
2023/08/18 14:30:39;;;;;;;10.95;3.78;;;;;;;;;;5079908;28;20090;-61
2023/08/18 14:34:19;;;;;;;9.00;3.40;;;;;;;;;;5083691;28;20451;-62
2023/08/18 14:37:59;;;;;;;11.13;3.10;;;;;;;;;;5085987;28;20047;-61
2023/08/18 14:41:40;;;;;;;9.90;3.40;;;;;;;;;;5086408;28;20051;-61
2023/08/18 14:45:20;;;;;;;9.00;3.30;;;;;;;;;;5087417;28;20059;-61
2023/08/18 14:49:03;;;;;;;10.15;3.10;;;;;;;;;;5083180;28;20042;-61
2023/08/18 14:52:41;;;;;;;11.43;3.30;;;;;;;;;;5081197;28;20051;-62
2023/08/18 14:56:21;;;;;;;11.80;3.50;;;;;;;;;;5078825;28;20048;-62
2023/08/18 15:00:05;;;;;;;9.18;3.80;;;;;;;;;;5085874;28;20044;-63
2023/08/18 15:03:44;;;;;;;13.38;3.28;;;;;;;;;;5087739;28;20075;-60